createdAt,value
2023-03-22T00:03:58.276Z,27.36
2023-03-22T00:07:58.316Z,27.32
2023-03-22T00:11:58.427Z,27.32
2023-03-22T00:15:58.610Z,27.30
2023-03-22T00:19:58.641Z,27.29
2023-03-22T00:23:58.677Z,27.28
2023-03-22T00:27:58.827Z,27.29
2023-03-22T00:31:58.975Z,27.30
2023-03-22T00:35:59.048Z,27.30
2023-03-22T00:39:59.055Z,27.28
2023-03-22T00:43:59.128Z,27.25
2023-03-22T00:47:59.198Z,27.25
2023-03-22T00:51:59.191Z,27.24
2023-03-22T00:55:59.209Z,27.23
2023-03-22T00:59:59.313Z,27.22
2023-03-22T01:03:59.503Z,27.21
2023-03-22T01:07:59.582Z,27.18
2023-03-22T01:11:59.675Z,27.14
2023-03-22T01:15:59.741Z,27.13
2023-03-22T01:19:59.883Z,27.09
2023-03-22T01:24:00.048Z,27.09
2023-03-22T01:28:00.165Z,27.07
2023-03-22T01:32:00.280Z,27.03
2023-03-22T01:36:00.474Z,27.00
2023-03-22T01:40:00.544Z,26.96
2023-03-22T01:44:00.622Z,26.93
2023-03-22T01:48:00.828Z,26.88
2023-03-22T01:52:00.962Z,26.86
2023-03-22T01:56:01.028Z,26.84
2023-03-22T02:00:01.099Z,26.80
2023-03-22T02:04:01.197Z,26.79
2023-03-22T02:08:01.323Z,26.75
2023-03-22T02:12:01.436Z,26.74
2023-03-22T02:16:01.576Z,26.68
2023-03-22T02:20:01.709Z,26.70
2023-03-22T02:24:01.882Z,26.68
2023-03-22T02:28:02.019Z,26.65
2023-03-22T02:32:02.127Z,26.65
2023-03-22T02:36:02.288Z,26.57
2023-03-22T02:40:02.445Z,26.56
2023-03-22T02:44:02.568Z,26.54
2023-03-22T02:48:02.712Z,26.53
2023-03-22T02:52:02.838Z,26.52
2023-03-22T02:56:02.974Z,26.51
2023-03-22T03:00:03.034Z,26.48
2023-03-22T03:04:03.238Z,26.44
2023-03-22T03:08:03.417Z,26.40
2023-03-22T03:12:03.531Z,26.37
2023-03-22T03:16:03.634Z,26.33
2023-03-22T03:20:03.727Z,26.32
2023-03-22T03:24:03.818Z,26.34
2023-03-22T03:28:03.817Z,26.32
2023-03-22T03:32:03.851Z,26.30
2023-03-22T03:36:03.943Z,26.26
2023-03-22T03:40:04.077Z,26.27
2023-03-22T03:44:04.196Z,26.26
2023-03-22T03:48:04.418Z,26.19
2023-03-22T03:52:04.452Z,26.18
2023-03-22T03:56:04.494Z,26.11
2023-03-22T04:00:04.604Z,26.11
2023-03-22T04:04:04.632Z,26.10
2023-03-22T04:08:04.646Z,26.03
2023-03-22T04:12:04.706Z,26.05
2023-03-22T04:16:04.865Z,26.01
2023-03-22T04:20:06.031Z,25.95
2023-03-22T04:24:05.154Z,25.88
2023-03-22T04:28:05.249Z,25.84
2023-03-22T04:32:05.328Z,25.79
2023-03-22T04:36:05.516Z,25.77
2023-03-22T04:40:05.667Z,25.73
2023-03-22T04:44:05.802Z,25.69
2023-03-22T04:48:05.964Z,25.67
2023-03-22T04:52:06.083Z,25.59
2023-03-22T04:56:06.248Z,25.58
2023-03-22T05:00:06.430Z,25.62
2023-03-22T05:04:06.584Z,25.54
2023-03-22T05:08:06.660Z,25.52
2023-03-22T05:12:06.696Z,25.44
2023-03-22T05:16:06.876Z,25.44
2023-03-22T05:20:06.827Z,25.41
2023-03-22T05:24:06.853Z,25.35
2023-03-22T05:28:06.903Z,25.27
2023-03-22T05:32:07.035Z,25.25
2023-03-22T05:36:07.100Z,25.26
2023-03-22T05:40:07.158Z,25.24
2023-03-22T05:44:07.184Z,25.22
2023-03-22T05:48:07.225Z,25.21
2023-03-22T05:52:07.264Z,25.07
2023-03-22T05:56:07.233Z,24.94
2023-03-22T06:00:07.219Z,24.87
2023-03-22T06:04:07.167Z,24.79
2023-03-22T06:08:07.133Z,24.75
2023-03-22T06:12:07.131Z,24.64
2023-03-22T06:16:07.136Z,24.51
2023-03-22T06:20:07.047Z,24.47
2023-03-22T06:24:07.259Z,24.54
2023-03-22T06:28:08.780Z,25.42
2023-03-22T06:32:06.925Z,27.24
2023-03-22T06:36:06.894Z,28.55
2023-03-22T06:40:07.296Z,29.83
2023-03-22T06:44:06.900Z,29.47
2023-03-22T06:48:07.081Z,28.52
2023-03-22T06:52:07.112Z,28.92
2023-03-22T06:56:07.143Z,28.82
2023-03-22T07:00:07.388Z,28.91
2023-03-22T07:04:07.557Z,28.56
2023-03-22T07:08:07.680Z,28.28
2023-03-22T07:12:07.755Z,28.46
2023-03-22T07:16:07.918Z,28.06
2023-03-22T07:20:07.901Z,28.00
2023-03-22T07:24:07.914Z,27.94
2023-03-22T07:28:07.997Z,27.81
2023-03-22T07:32:08.315Z,27.42
2023-03-22T07:36:08.269Z,28.33
2023-03-22T07:40:08.023Z,29.25
2023-03-22T07:44:17.773Z,28.71
2023-03-22T07:48:09.234Z,28.11
2023-03-22T07:52:08.157Z,28.09
2023-03-22T07:56:08.118Z,28.11
2023-03-22T08:00:08.102Z,27.59
2023-03-22T08:04:08.100Z,27.68
2023-03-22T08:08:08.029Z,27.57
2023-03-22T08:12:08.030Z,27.43
2023-03-22T08:16:08.047Z,26.94
2023-03-22T08:20:07.994Z,27.24
2023-03-22T08:24:07.910Z,27.33
2023-03-22T08:28:08.359Z,27.20
2023-03-22T08:32:08.371Z,27.44
2023-03-22T08:36:07.880Z,27.69
2023-03-22T08:40:07.798Z,27.99
2023-03-22T08:44:07.748Z,28.22
2023-03-22T08:48:08.018Z,27.43
2023-03-22T08:52:07.951Z,27.29
2023-03-22T08:56:08.044Z,27.87
2023-03-22T09:00:08.180Z,28.08
2023-03-22T09:04:10.654Z,28.07
2023-03-22T09:08:08.508Z,27.86
2023-03-22T09:12:08.802Z,27.91
2023-03-22T09:16:08.700Z,27.76
2023-03-22T09:20:12.759Z,27.58
2023-03-22T09:24:09.839Z,26.10
2023-03-22T09:28:08.650Z,25.92
2023-03-22T09:32:08.795Z,25.97
2023-03-22T09:36:09.330Z,25.89
2023-03-22T09:40:09.324Z,26.94
2023-03-22T09:44:09.046Z,26.89
2023-03-22T09:48:09.257Z,26.24
2023-03-22T09:52:09.422Z,26.07
2023-03-22T09:56:09.831Z,25.94
2023-03-22T10:00:09.809Z,25.82
2023-03-22T10:04:09.953Z,25.81
2023-03-22T10:08:10.032Z,25.91
2023-03-22T10:12:10.072Z,25.29
2023-03-22T10:16:10.164Z,25.01
2023-03-22T10:20:10.124Z,24.83
2023-03-22T10:24:10.128Z,24.53
2023-03-22T10:28:10.234Z,24.65
2023-03-22T10:32:10.193Z,24.37
2023-03-22T10:36:10.155Z,24.58
2023-03-22T10:40:10.325Z,24.85
2023-03-22T10:44:10.104Z,24.77
2023-03-22T10:48:10.374Z,24.94
2023-03-22T10:52:10.341Z,25.02
2023-03-22T10:56:09.971Z,24.94
2023-03-22T11:00:10.384Z,24.77
2023-03-22T11:04:09.910Z,24.75
2023-03-22T11:08:09.901Z,24.63
2023-03-22T11:12:10.345Z,24.59
2023-03-22T11:16:09.844Z,23.60
2023-03-22T11:20:09.888Z,23.05
2023-03-22T11:24:09.848Z,22.71
2023-03-22T11:28:09.874Z,23.32
2023-03-22T11:32:10.066Z,22.51
2023-03-22T11:36:10.304Z,21.88
2023-03-22T11:40:10.424Z,21.38
2023-03-22T11:44:10.587Z,21.81
2023-03-22T11:48:10.716Z,21.92
2023-03-22T11:52:10.531Z,22.37
2023-03-22T11:56:10.470Z,21.68
2023-03-22T12:00:10.450Z,21.74
2023-03-22T12:04:10.485Z,21.87
2023-03-22T12:08:10.856Z,22.03
2023-03-22T12:12:10.350Z,21.86
2023-03-22T12:16:10.447Z,22.15
2023-03-22T12:20:10.376Z,21.81
2023-03-22T12:24:10.237Z,22.61
2023-03-22T12:28:10.215Z,22.23
2023-03-22T12:32:10.170Z,22.33
2023-03-22T12:36:10.206Z,22.79
2023-03-22T12:40:10.114Z,22.83
2023-03-22T12:44:10.070Z,23.15
2023-03-22T12:48:10.238Z,23.09
2023-03-22T12:52:10.014Z,23.13
2023-03-22T12:56:09.973Z,23.22
2023-03-22T13:00:09.951Z,23.06
2023-03-22T13:04:09.937Z,23.03
2023-03-22T13:08:09.877Z,23.05
2023-03-22T13:12:09.896Z,23.00
2023-03-22T13:16:09.938Z,22.98
2023-03-22T13:20:09.894Z,22.94
2023-03-22T13:24:09.765Z,22.91
2023-03-22T13:28:09.718Z,22.84
2023-03-22T13:32:09.747Z,22.86
2023-03-22T13:36:09.722Z,22.85
2023-03-22T13:40:09.698Z,22.82
2023-03-22T13:44:09.718Z,22.85
2023-03-22T13:48:09.817Z,22.86
2023-03-22T13:52:09.744Z,22.86
2023-03-22T13:56:09.716Z,22.85
2023-03-22T14:00:15.305Z,22.87
2023-03-22T14:04:10.815Z,22.91
2023-03-22T14:08:09.800Z,22.89
2023-03-22T14:12:09.741Z,22.89
2023-03-22T14:16:09.756Z,22.93
2023-03-22T14:20:09.708Z,22.94
2023-03-22T14:49:10.513Z,22.95
2023-03-22T14:53:10.720Z,22.91
2023-03-22T14:57:10.743Z,22.95
2023-03-22T15:01:10.419Z,23.04
2023-03-22T15:05:10.718Z,22.99
2023-03-22T15:09:10.348Z,22.96
2023-03-22T15:13:10.313Z,22.94
2023-03-22T15:17:10.278Z,23.02
2023-03-22T15:21:10.265Z,23.04
2023-03-22T15:25:10.214Z,23.02
2023-03-22T15:29:10.164Z,23.05
2023-03-22T15:33:10.126Z,23.07
2023-03-22T15:37:10.101Z,23.09
2023-03-22T15:41:10.075Z,23.12
2023-03-22T15:45:10.015Z,23.16
2023-03-22T15:49:10.030Z,23.18
2023-03-22T15:53:10.053Z,23.21
2023-03-22T15:57:10.090Z,23.27
2023-03-22T16:01:10.177Z,23.30
2023-03-22T16:05:10.133Z,23.32
2023-03-22T16:09:10.179Z,23.31
2023-03-22T16:13:10.218Z,23.35
2023-03-22T16:17:10.274Z,23.40
2023-03-22T16:21:10.316Z,23.43
2023-03-22T16:25:10.345Z,23.42
2023-03-22T16:29:10.522Z,23.48
2023-03-22T16:33:10.688Z,23.52
2023-03-22T16:37:10.726Z,23.53
2023-03-22T16:41:10.793Z,23.64
2023-03-22T16:45:11.252Z,23.68
2023-03-22T16:49:10.896Z,23.73
2023-03-22T16:53:10.955Z,23.72
2023-03-22T16:57:11.011Z,23.76
2023-03-22T17:01:11.071Z,23.78
2023-03-22T17:05:11.222Z,23.76
2023-03-22T17:09:11.223Z,23.84
2023-03-22T17:13:11.279Z,23.86
2023-03-22T17:17:11.386Z,23.87
2023-03-22T17:21:11.444Z,23.88
2023-03-22T17:25:11.533Z,23.95
2023-03-22T17:29:11.633Z,24.03
2023-03-22T17:33:12.835Z,24.08
2023-03-22T17:37:11.819Z,24.07
2023-03-22T17:41:11.958Z,24.01
2023-03-22T17:45:12.070Z,23.94
2023-03-22T17:49:12.151Z,24.01
2023-03-22T17:53:23.796Z,23.95
2023-03-22T17:57:36.328Z,23.99
2023-03-22T18:01:13.216Z,24.02
2023-03-22T18:05:12.412Z,24.18
2023-03-22T18:09:12.149Z,24.25
2023-03-22T18:13:12.098Z,24.22
2023-03-22T18:17:12.134Z,24.12
2023-03-22T18:21:12.034Z,24.11
2023-03-22T18:25:12.140Z,24.34
2023-03-22T18:29:11.978Z,24.13
2023-03-22T18:33:11.947Z,24.41
2023-03-22T18:37:11.960Z,24.47
2023-03-22T18:41:34.577Z,24.57
2023-03-22T18:45:15.924Z,24.64
2023-03-22T18:49:11.987Z,24.68
2023-03-22T18:53:18.265Z,24.77
2023-03-22T18:57:13.379Z,24.82
2023-03-22T19:01:12.456Z,24.92
2023-03-22T19:05:12.296Z,24.90
2023-03-22T19:09:11.884Z,24.90
2023-03-22T19:13:12.332Z,24.98
2023-03-22T19:17:12.312Z,25.02
2023-03-22T19:21:23.393Z,25.04
2023-03-22T19:25:13.308Z,25.05
2023-03-22T19:29:12.306Z,25.03
2023-03-22T19:33:30.867Z,25.01
2023-03-22T19:37:13.093Z,25.06
2023-03-22T19:45:12.318Z,25.08
2023-03-22T19:49:12.012Z,25.12
2023-03-22T19:53:44.332Z,25.04
2023-03-22T19:57:12.944Z,25.11
2023-03-22T20:01:11.956Z,25.22
2023-03-22T20:05:17.671Z,25.12
2023-03-22T20:09:12.839Z,25.13
2023-03-22T20:13:11.806Z,25.21
2023-03-22T20:17:15.182Z,25.23
2023-03-22T20:21:12.727Z,25.20
2023-03-22T20:25:11.697Z,25.11
2023-03-22T20:29:11.671Z,25.15
2023-03-22T20:33:11.765Z,25.15
2023-03-22T20:37:11.911Z,25.16
2023-03-22T20:41:12.069Z,25.16
2023-03-22T20:45:12.200Z,25.18
2023-03-22T20:49:12.346Z,25.25
2023-03-22T20:53:12.484Z,25.24
2023-03-22T20:57:12.646Z,25.21
2023-03-22T21:01:12.806Z,25.16
2023-03-22T21:05:12.916Z,25.22
2023-03-22T21:09:13.069Z,25.19
2023-03-22T21:13:13.217Z,25.15
2023-03-22T21:17:13.364Z,25.19
2023-03-22T21:21:13.540Z,25.18
2023-03-22T21:25:13.693Z,25.17
2023-03-22T21:29:13.824Z,25.18
2023-03-22T21:33:14.001Z,25.18
2023-03-22T21:37:14.131Z,25.19
2023-03-22T21:41:14.301Z,25.17
2023-03-22T21:45:14.538Z,25.20
2023-03-22T21:49:14.602Z,25.25
2023-03-22T21:53:14.709Z,25.25
2023-03-22T21:57:14.860Z,25.25
2023-03-22T22:01:15.022Z,25.26
2023-03-22T22:05:15.211Z,25.27
2023-03-22T22:09:15.377Z,25.28
2023-03-22T22:13:15.540Z,25.30
2023-03-22T22:17:15.691Z,25.30
2023-03-22T22:21:15.851Z,25.34
2023-03-22T22:25:16.052Z,25.36
2023-03-22T22:29:16.214Z,25.35
2023-03-22T22:33:16.374Z,25.38
2023-03-22T22:37:16.575Z,25.37
2023-03-22T22:41:16.765Z,25.35
2023-03-22T22:45:16.926Z,25.35
2023-03-22T22:49:17.080Z,25.34
2023-03-22T22:53:17.268Z,25.34
2023-03-22T22:57:17.432Z,25.33
2023-03-22T23:01:17.612Z,25.33
2023-03-22T23:05:17.775Z,25.33
2023-03-22T23:09:17.924Z,25.28
2023-03-22T23:13:18.115Z,25.29
2023-03-22T23:17:18.270Z,25.32
2023-03-22T23:21:18.444Z,25.34
2023-03-22T23:25:18.607Z,25.32
2023-03-22T23:29:18.764Z,25.32
2023-03-22T23:33:18.941Z,25.32
2023-03-22T23:37:19.132Z,25.33
2023-03-22T23:41:19.274Z,25.36
2023-03-22T23:45:19.456Z,25.33
2023-03-22T23:49:19.623Z,25.34
2023-03-22T23:53:19.768Z,25.32
2023-03-22T23:57:19.954Z,25.34
